Time;durP1;ratioP1;P1;durP2;ratioP2;P2;SDS_P1;SDS_P2;PMS_P1;PMS_P2;Temp;Humidity;BMP_temperature;BMP_pressure;BME280_temperature;BME280_humidity;BME280_pressure;Samples;Min_cycle;Max_cycle;Signal;HPM_P1;HPM_P2
2022/01/20 00:01:46;;;;;;;;;;;-0.50;99.90;;;;;;5110961;28;20408;-74
2022/01/20 00:04:24;;;;;;;;;;;-0.60;99.90;;;;;;5110126;28;19911;-73
2022/01/20 00:09:35;;;;;;;;;;;-0.50;99.90;;;;;;5110460;28;19947;-73
2022/01/20 00:26:00;;;;;;;;;;;-0.50;99.90;;;;;;5111965;28;20420;-74
2022/01/20 00:33:43;;;;;;;;;;;-0.40;99.90;;;;;;5099018;28;19912;-72
2022/01/20 00:38:35;;;;;;;;;;;-0.40;99.90;;;;;;5108697;28;20360;-73
2022/01/20 00:41:01;;;;;;;;;;;-0.40;99.90;;;;;;5113915;28;19924;-73
2022/01/20 00:43:27;;;;;;;;;;;-0.40;99.90;;;;;;5112358;28;19912;-72
2022/01/20 00:45:52;;;;;;;;;;;-0.40;99.90;;;;;;5113769;28;20347;-73
2022/01/20 00:48:18;;;;;;;;;;;-0.50;99.90;;;;;;5113550;28;19923;-73
2022/01/20 00:50:44;;;;;;;;;;;-0.40;99.90;;;;;;5112834;28;20374;-73
2022/01/20 00:53:09;;;;;;;;;;;-0.40;99.90;;;;;;5113387;27;19915;-73
2022/01/20 00:55:37;;;;;;;;;;;-0.30;99.90;;;;;;5113859;28;19915;-74
2022/01/20 00:58:02;;;;;;;;;;;-0.30;99.90;;;;;;5113691;28;19912;-73
2022/01/20 01:00:28;;;;;;;;;;;-0.30;99.90;;;;;;5094141;28;19923;-74
2022/01/20 01:02:55;;;;;;;;;;;-0.30;99.90;;;;;;5102103;28;20562;-74
2022/01/20 01:05:22;;;;;;;;;;;-0.30;99.90;;;;;;5112000;28;19998;-73
2022/01/20 01:07:52;;;;;;;;;;;-0.40;99.90;;;;;;5113096;28;20367;-73
2022/01/20 01:10:20;;;;;;;;;;;-0.30;99.90;;;;;;5111934;28;20215;-73
2022/01/20 01:12:56;;;;;;;;;;;-0.30;99.90;;;;;;5110362;28;19938;-73
2022/01/20 01:15:30;;;;;;;;;;;-0.40;99.90;;;;;;5111690;28;19966;-73
2022/01/20 01:23:27;;;;;;;;;;;-0.40;99.90;;;;;;5113220;28;19919;-73
2022/01/20 01:25:55;;;;;;;;;;;-0.40;99.90;;;;;;5112872;28;20259;-74
2022/01/20 01:28:24;;;;;;;;;;;-0.40;99.90;;;;;;5111200;28;19927;-73
2022/01/20 01:33:34;;;;;;;;;;;-0.40;99.90;;;;;;5113177;28;20313;-74
2022/01/20 01:36:03;;;;;;;;;;;-0.40;99.90;;;;;;5111795;28;20407;-73
2022/01/20 01:38:38;;;;;;;;;;;-0.30;99.90;;;;;;5110495;28;19916;-74
2022/01/20 01:41:13;;;;;;;;;;;-0.30;99.90;;;;;;5113101;28;19969;-73
2022/01/20 01:43:41;;;;;;;;;;;-0.30;99.90;;;;;;5113001;28;19920;-74
2022/01/20 01:46:07;;;;;;;;;;;-0.30;99.90;;;;;;5112907;28;20289;-74
2022/01/20 01:48:34;;;;;;;;;;;-0.40;99.90;;;;;;5112291;28;19916;-73
2022/01/20 01:51:00;;;;;;;;;;;-0.30;99.90;;;;;;5111435;28;19916;-74
2022/01/20 01:53:26;;;;;;;;;;;-0.30;99.90;;;;;;5111160;28;20363;-73
2022/01/20 01:55:52;;;;;;;;;;;-0.30;99.90;;;;;;5112441;28;19918;-74
2022/01/20 01:58:17;;;;;;;;;;;-0.40;99.90;;;;;;5112585;28;19912;-74
2022/01/20 02:00:44;;;;;;;;;;;-0.40;99.90;;;;;;5112764;28;19951;-73
2022/01/20 02:03:09;;;;;;;;;;;-0.40;99.90;;;;;;5110878;28;19916;-73
2022/01/20 02:05:46;;;;;;;;;;;-0.40;99.90;;;;;;5112331;28;20363;-74
2022/01/20 02:08:33;;;;;;;;;;;-0.40;99.90;;;;;;5112175;28;19923;-75
2022/01/20 02:19:12;;;;;;;;;;;-0.30;99.90;;;;;;5112600;28;20290;-74
2022/01/20 02:21:55;;;;;;;;;;;-0.30;99.90;;;;;;5111004;28;19998;-72
2022/01/20 02:24:21;;;;;;;;;;;-0.30;99.90;;;;;;5070336;28;19920;-73
2022/01/20 02:26:47;;;;;;;;;;;-0.30;99.90;;;;;;5069815;28;19966;-74
2022/01/20 02:29:12;;;;;;;;;;;-0.30;99.90;;;;;;5111784;28;19923;-74
2022/01/20 02:31:39;;;;;;;;;;;-0.30;99.90;;;;;;5112036;28;19967;-74
2022/01/20 02:34:04;;;;;;;;;;;-0.30;99.90;;;;;;5112037;28;19923;-73
2022/01/20 02:36:31;;;;;;;;;;;-0.30;99.90;;;;;;5111763;28;20294;-73
2022/01/20 02:39:04;;;;;;;;;;;-0.30;99.90;;;;;;5093995;28;19919;-74
2022/01/20 02:46:58;;;;;;;;;;;-0.30;99.90;;;;;;5073994;28;20379;-74
2022/01/20 02:49:24;;;;;;;;;;;-0.30;99.90;;;;;;5111078;28;19912;-74
2022/01/20 02:51:51;;;;;;;;;;;-0.30;99.90;;;;;;5111277;28;19995;-74
2022/01/20 02:54:17;;;;;;;;;;;-0.30;99.90;;;;;;5110231;28;19916;-74
2022/01/20 02:56:43;;;;;;;;;;;-0.30;99.90;;;;;;5110160;28;19957;-74
2022/01/20 02:59:08;;;;;;;;;;;-0.30;99.90;;;;;;5111736;28;19911;-73
2022/01/20 03:01:34;;;;;;;;;;;-0.30;99.90;;;;;;5111608;28;19950;-73
2022/01/20 03:04:00;;;;;;;;;;;-0.30;99.90;;;;;;5109831;28;20317;-73
2022/01/20 03:06:26;;;;;;;;;;;-0.30;99.90;;;;;;5110243;28;19915;-73
2022/01/20 03:08:52;;;;;;;;;;;-0.30;99.90;;;;;;5109538;28;19999;-74
2022/01/20 03:11:17;;;;;;;;;;;-0.30;99.90;;;;;;5111284;28;19919;-74
2022/01/20 03:13:43;;;;;;;;;;;-0.30;99.90;;;;;;5108232;28;19919;-74
2022/01/20 03:16:09;;;;;;;;;;;-0.30;99.90;;;;;;5111279;28;20600;-74
2022/01/20 03:18:34;;;;;;;;;;;-0.30;99.90;;;;;;5109392;28;19918;-73
2022/01/20 03:21:00;;;;;;;;;;;-0.30;99.90;;;;;;5111008;28;19985;-73
2022/01/20 03:23:25;;;;;;;;;;;-0.40;99.90;;;;;;5111088;28;20314;-74
2022/01/20 03:25:51;;;;;;;;;;;-0.30;99.90;;;;;;5110980;28;19920;-73
2022/01/20 03:28:17;;;;;;;;;;;-0.40;99.90;;;;;;5109123;28;19916;-73
2022/01/20 03:30:42;;;;;;;;;;;-0.40;99.90;;;;;;5110751;28;19955;-74
2022/01/20 03:33:08;;;;;;;;;;;-0.40;99.90;;;;;;5109425;28;19969;-74
2022/01/20 03:35:34;;;;;;;;;;;-0.40;99.90;;;;;;5109424;28;19922;-74
2022/01/20 03:38:00;;;;;;;;;;;-0.40;99.90;;;;;;5110497;28;20015;-74
2022/01/20 03:40:25;;;;;;;;;;;-0.40;99.90;;;;;;5110485;28;19998;-74
2022/01/20 03:42:51;;;;;;;;;;;-0.30;99.90;;;;;;5109270;28;19920;-74
2022/01/20 03:45:17;;;;;;;;;;;-0.40;99.90;;;;;;5110824;28;19918;-74
2022/01/20 03:47:42;;;;;;;;;;;-0.40;99.90;;;;;;5110040;28;19930;-74
2022/01/20 03:50:59;;;;;;;;;;;-0.40;99.90;;;;;;5109296;28;20003;-74
2022/01/20 03:52:54;;;;;;;;;;;-0.40;99.90;;;;;;5110549;28;19922;-74
2022/01/20 03:55:20;;;;;;;;;;;-0.50;99.90;;;;;;5110864;28;19908;-73
2022/01/20 03:57:45;;;;;;;;;;;-0.50;99.90;;;;;;5110173;28;19920;-74
2022/01/20 04:00:11;;;;;;;;;;;-0.50;99.90;;;;;;5108784;28;19916;-74
2022/01/20 04:02:37;;;;;;;;;;;-0.50;99.90;;;;;;5108794;28;20008;-74
2022/01/20 04:05:02;;;;;;;;;;;-0.50;99.90;;;;;;5110339;28;19909;-74
2022/01/20 04:07:28;;;;;;;;;;;-0.60;99.90;;;;;;5109905;28;19968;-74
2022/01/20 04:09:53;;;;;;;;;;;-0.60;99.90;;;;;;5110067;28;19908;-74
2022/01/20 04:12:19;;;;;;;;;;;-0.60;99.90;;;;;;5107117;28;19923;-73
2022/01/20 04:14:48;;;;;;;;;;;-0.60;99.90;;;;;;5110381;28;19998;-74
2022/01/20 04:17:21;;;;;;;;;;;-0.60;99.90;;;;;;5109955;28;20022;-74
2022/01/20 04:19:47;;;;;;;;;;;-0.60;99.90;;;;;;5109939;28;19908;-74
2022/01/20 04:22:13;;;;;;;;;;;-0.70;99.90;;;;;;5109661;28;19919;-74
2022/01/20 04:24:38;;;;;;;;;;;-0.70;99.90;;;;;;5110861;28;20393;-74
2022/01/20 04:27:04;;;;;;;;;;;-0.80;99.90;;;;;;5109913;28;19915;-74
2022/01/20 04:29:31;;;;;;;;;;;-0.80;99.90;;;;;;5110260;28;20334;-74
2022/01/20 04:31:58;;;;;;;;;;;-0.80;99.90;;;;;;5109624;28;19911;-73
2022/01/20 04:34:24;;;;;;;;;;;-0.80;99.90;;;;;;5110197;28;19919;-73
2022/01/20 04:36:52;;;;;;;;;;;-0.80;99.90;;;;;;5109990;28;19908;-74
2022/01/20 04:39:21;;;;;;;;;;;-0.80;99.90;;;;;;5109691;28;19915;-73
2022/01/20 04:41:47;;;;;;;;;;;-0.80;99.90;;;;;;5108661;28;19918;-74
2022/01/20 04:44:20;;;;;;;;;;;-0.80;99.90;;;;;;5108411;28;19916;-74
2022/01/20 04:46:59;;;;;;;;;;;-0.90;99.90;;;;;;5109978;28;19945;-74
2022/01/20 04:57:38;;;;;;;;;;;-1.00;99.90;;;;;;5109631;28;20290;-73
2022/01/20 05:00:04;;;;;;;;;;;-1.00;99.90;;;;;;5109717;28;19908;-73
2022/01/20 05:02:29;;;;;;;;;;;-1.00;99.90;;;;;;5109592;28;20014;-73
2022/01/20 05:04:56;;;;;;;;;;;-1.00;99.90;;;;;;5109881;28;20010;-73
2022/01/20 05:07:25;;;;;;;;;;;-1.00;99.90;;;;;;5107966;28;20038;-73
2022/01/20 05:09:53;;;;;;;;;;;-1.00;99.90;;;;;;5108274;28;19915;-74
2022/01/20 05:12:25;;;;;;;;;;;-1.00;99.90;;;;;;5107361;28;20295;-74
2022/01/20 05:14:50;;;;;;;;;;;-1.00;99.90;;;;;;5112247;28;20260;-73
2022/01/20 05:17:16;;;;;;;;;;;-1.10;99.90;;;;;;5113126;28;19926;-73
2022/01/20 05:19:41;;;;;;;;;;;-1.10;99.90;;;;;;5092978;28;20430;-72
2022/01/20 05:22:07;;;;;;;;;;;-1.10;99.90;;;;;;5095374;28;19919;-73
2022/01/20 05:24:32;;;;;;;;;;;-1.10;99.90;;;;;;5113487;28;19914;-73
2022/01/20 05:26:58;;;;;;;;;;;-1.20;99.90;;;;;;5112722;28;20363;-73
2022/01/20 05:29:24;;;;;;;;;;;-1.20;99.90;;;;;;5113239;28;19962;-73
2022/01/20 05:31:50;;;;;;;;;;;-1.10;99.90;;;;;;5111356;28;19907;-73
2022/01/20 05:34:15;;;;;;;;;;;-1.20;99.90;;;;;;5111914;28;19915;-73
2022/01/20 05:36:42;;;;;;;;;;;-1.20;99.90;;;;;;5113031;28;20290;-73
2022/01/20 05:39:08;;;;;;;;;;;-1.20;99.90;;;;;;5111108;28;19924;-73
2022/01/20 05:41:34;;;;;;;;;;;-1.20;99.90;;;;;;5111360;28;19919;-73
2022/01/20 05:44:00;;;;;;;;;;;-1.20;99.90;;;;;;5110928;28;19915;-73
2022/01/20 05:46:33;;;;;;;;;;;-1.20;99.90;;;;;;5112816;28;20222;-74
2022/01/20 05:49:08;;;;;;;;;;;-1.20;99.90;;;;;;5112836;28;20355;-73
2022/01/20 05:51:34;;;;;;;;;;;-1.20;99.90;;;;;;5112574;28;20032;-72
2022/01/20 05:54:00;;;;;;;;;;;-1.20;99.90;;;;;;5112498;28;19943;-74
2022/01/20 05:56:26;;;;;;;;;;;-1.10;99.90;;;;;;5111438;28;20344;-74
2022/01/20 05:58:51;;;;;;;;;;;-1.10;99.90;;;;;;5112316;28;19946;-72
2022/01/20 06:01:17;;;;;;;;;;;-1.10;99.90;;;;;;5112684;28;19908;-73
2022/01/20 06:03:43;;;;;;;;;;;-1.10;99.90;;;;;;5110652;28;19920;-73
2022/01/20 06:06:10;;;;;;;;;;;-1.10;99.90;;;;;;5111255;28;20404;-73
2022/01/20 06:08:36;;;;;;;;;;;-1.10;99.90;;;;;;5112667;28;19963;-74
2022/01/20 06:11:02;;;;;;;;;;;-1.10;99.90;;;;;;5110827;28;19918;-73
2022/01/20 06:13:28;;;;;;;;;;;-1.10;99.90;;;;;;5110841;28;20421;-73
2022/01/20 06:15:53;;;;;;;;;;;-1.10;99.90;;;;;;5110878;28;19920;-73
2022/01/20 06:18:19;;;;;;;;;;;-1.00;99.90;;;;;;5110346;28;19928;-75
2022/01/20 06:20:45;;;;;;;;;;;-1.00;99.90;;;;;;5095973;28;19913;-67
2022/01/20 06:23:11;;;;;;;;;;;-1.00;99.90;;;;;;5086467;28;20019;-68
2022/01/20 06:25:37;;;;;;;;;;;-0.90;99.90;;;;;;5076839;28;20016;-68
2022/01/20 06:28:03;;;;;;;;;;;-0.80;99.90;;;;;;5091791;28;20370;-67
2022/01/20 06:30:30;;;;;;;;;;;-0.80;99.90;;;;;;5078663;28;20008;-71
2022/01/20 06:32:55;;;;;;;;;;;-0.70;99.90;;;;;;5085214;28;19916;-68
2022/01/20 06:35:21;;;;;;;;;;;-0.70;99.90;;;;;;5084343;28;19923;-67
2022/01/20 06:37:46;;;;;;;;;;;-0.70;99.90;;;;;;5078794;28;19921;-67
2022/01/20 06:40:12;;;;;;;;;;;-0.70;99.90;;;;;;5086496;28;19919;-67
2022/01/20 06:42:38;;;;;;;;;;;-0.70;99.90;;;;;;5084020;28;20011;-67
2022/01/20 06:45:05;;;;;;;;;;;-0.70;99.90;;;;;;5071991;28;20404;-67
2022/01/20 06:47:31;;;;;;;;;;;-0.70;99.90;;;;;;5087629;28;19999;-68
2022/01/20 06:49:57;;;;;;;;;;;-0.60;99.90;;;;;;5081033;28;20321;-67
2022/01/20 06:52:22;;;;;;;;;;;-0.60;99.90;;;;;;5096610;28;19923;-67
2022/01/20 06:54:48;;;;;;;;;;;-0.60;99.90;;;;;;5108050;28;20457;-67
2022/01/20 06:57:14;;;;;;;;;;;-0.70;99.90;;;;;;5111215;28;19916;-67
2022/01/20 06:59:39;;;;;;;;;;;-0.60;99.90;;;;;;5082850;28;20042;-70
2022/01/20 07:02:05;;;;;;;;;;;-0.60;99.90;;;;;;5075138;28;19920;-68
2022/01/20 07:04:32;;;;;;;;;;;-0.60;99.90;;;;;;5088373;28;19919;-68
2022/01/20 07:06:57;;;;;;;;;;;-0.50;99.90;;;;;;5079215;28;19922;-69
2022/01/20 07:09:23;;;;;;;;;;;-0.40;99.90;;;;;;5080030;28;20283;-69
2022/01/20 07:11:49;;;;;;;;;;;-0.30;99.90;;;;;;5082239;28;20311;-69
2022/01/20 07:14:14;;;;;;;;;;;-0.10;99.90;;;;;;5086212;28;20234;-68
2022/01/20 07:16:40;;;;;;;;;;;0.00;99.90;;;;;;5078280;28;20352;-68
2022/01/20 07:19:06;;;;;;;;;;;0.10;99.90;;;;;;5082795;28;19920;-68
2022/01/20 07:21:31;;;;;;;;;;;0.40;99.90;;;;;;5079754;28;19916;-68
2022/01/20 07:23:57;;;;;;;;;;;0.60;99.90;;;;;;5097245;28;19924;-69
2022/01/20 07:26:22;;;;;;;;;;;0.70;99.90;;;;;;5074600;28;19917;-69
2022/01/20 07:28:48;;;;;;;;;;;0.80;99.90;;;;;;5083652;28;19944;-68
2022/01/20 07:31:16;;;;;;;;;;;1.00;99.90;;;;;;5088884;28;20379;-67
2022/01/20 07:33:44;;;;;;;;;;;1.30;99.90;;;;;;5083390;28;20406;-68
2022/01/20 07:36:09;;;;;;;;;;;1.70;99.90;;;;;;5089209;28;19912;-68
2022/01/20 07:38:35;;;;;;;;;;;2.20;99.90;;;;;;5104093;28;19915;-68
2022/01/20 07:41:01;;;;;;;;;;;2.50;99.90;;;;;;5082433;28;19952;-69
2022/01/20 07:43:26;;;;;;;;;;;3.00;99.90;;;;;;5097386;28;19969;-68
2022/01/20 07:45:52;;;;;;;;;;;3.30;99.90;;;;;;5104479;28;19922;-68
2022/01/20 07:48:17;;;;;;;;;;;2.90;99.90;;;;;;5110794;28;20022;-68
2022/01/20 07:50:43;;;;;;;;;;;2.80;99.90;;;;;;5101737;28;19935;-68
2022/01/20 07:53:09;;;;;;;;;;;2.60;99.90;;;;;;5092237;28;19948;-68
2022/01/20 07:55:34;;;;;;;;;;;2.50;99.90;;;;;;5110918;28;19912;-68
2022/01/20 07:58:00;;;;;;;;;;;2.50;99.90;;;;;;5110994;28;19916;-68
2022/01/20 08:00:25;;;;;;;;;;;2.40;99.90;;;;;;5105971;28;19915;-67
2022/01/20 08:02:51;;;;;;;;;;;2.30;99.90;;;;;;5101905;28;19920;-67
2022/01/20 08:05:17;;;;;;;;;;;2.20;99.90;;;;;;5099124;28;19908;-68
2022/01/20 08:07:42;;;;;;;;;;;2.10;99.90;;;;;;5106166;28;19920;-69
2022/01/20 08:10:11;;;;;;;;;;;2.00;99.90;;;;;;5073388;28;20003;-66
2022/01/20 08:12:37;;;;;;;;;;;2.00;99.90;;;;;;5086713;28;19974;-68
2022/01/20 08:15:03;;;;;;;;;;;2.10;99.90;;;;;;5089357;28;20059;-68
2022/01/20 08:17:29;;;;;;;;;;;2.20;99.90;;;;;;5079925;28;19947;-65
2022/01/20 08:19:54;;;;;;;;;;;2.30;99.90;;;;;;5077214;28;19913;-68
2022/01/20 08:22:20;;;;;;;;;;;2.30;99.90;;;;;;5075610;28;19920;-69
2022/01/20 08:24:51;;;;;;;;;;;2.40;99.90;;;;;;5079207;28;20356;-69
2022/01/20 08:27:18;;;;;;;;;;;1.10;99.90;;;;;;5073253;28;19924;-67
2022/01/20 08:29:43;;;;;;;;;;;2.30;99.90;;;;;;5073373;28;19916;-66
2022/01/20 08:32:09;;;;;;;;;;;2.20;99.90;;;;;;5073002;28;19920;-66
2022/01/20 08:34:34;;;;;;;;;;;2.10;99.90;;;;;;5077430;28;20604;-66
2022/01/20 08:37:00;;;;;;;;;;;2.20;99.90;;;;;;5075814;28;20267;-67
2022/01/20 08:41:58;;;;;;;;;;;2.40;99.90;;;;;;5076585;28;19922;-66
2022/01/20 08:44:24;;;;;;;;;;;2.40;99.90;;;;;;5077009;28;19926;-66
2022/01/20 08:46:50;;;;;;;;;;;2.40;99.90;;;;;;5079997;28;19919;-66
2022/01/20 08:49:16;;;;;;;;;;;2.40;99.90;;;;;;5078210;28;20013;-65
2022/01/20 08:51:42;;;;;;;;;;;2.50;99.90;;;;;;5080081;28;20076;-66
2022/01/20 08:54:08;;;;;;;;;;;2.50;99.90;;;;;;5079465;28;19978;-67
2022/01/20 08:56:36;;;;;;;;;;;2.60;99.90;;;;;;5087388;28;19911;-67
2022/01/20 08:59:05;;;;;;;;;;;2.60;99.90;;;;;;5084496;28;20253;-68
2022/01/20 09:01:31;;;;;;;;;;;2.60;99.90;;;;;;5082211;28;20274;-65
2022/01/20 09:03:56;;;;;;;;;;;2.80;99.90;;;;;;5081485;28;19931;-66
2022/01/20 09:06:22;;;;;;;;;;;2.90;99.90;;;;;;5080477;28;19923;-66
2022/01/20 09:08:48;;;;;;;;;;;3.10;99.90;;;;;;5084050;28;20042;-66
2022/01/20 09:11:22;;;;;;;;;;;3.10;99.90;;;;;;5077988;28;20251;-66
2022/01/20 09:16:34;;;;;;;;;;;3.10;99.90;;;;;;5087090;28;19919;-67
2022/01/20 09:18:59;;;;;;;;;;;3.10;99.90;;;;;;5074477;28;19924;-66
2022/01/20 09:21:26;;;;;;;;;;;2.90;99.90;;;;;;5074861;28;19999;-67
2022/01/20 09:23:52;;;;;;;;;;;3.00;99.90;;;;;;5074742;28;19932;-68
2022/01/20 09:26:17;;;;;;;;;;;3.20;99.90;;;;;;5074503;28;20634;-68
2022/01/20 09:28:43;;;;;;;;;;;3.40;99.90;;;;;;5079022;28;20023;-67
2022/01/20 09:31:09;;;;;;;;;;;3.60;99.90;;;;;;5078046;28;19916;-67
2022/01/20 09:33:35;;;;;;;;;;;3.80;99.90;;;;;;5076014;28;19921;-68
2022/01/20 09:36:01;;;;;;;;;;;4.00;99.90;;;;;;5078016;28;19912;-68
2022/01/20 09:38:27;;;;;;;;;;;4.10;99.90;;;;;;5083942;28;19924;-65
2022/01/20 09:40:53;;;;;;;;;;;4.10;99.90;;;;;;5084429;28;20006;-67
2022/01/20 09:43:19;;;;;;;;;;;4.30;99.90;;;;;;5086872;28;20011;-73
2022/01/20 09:45:46;;;;;;;;;;;4.40;99.90;;;;;;5081617;28;20355;-69
2022/01/20 09:50:05;;;;;;;19.17;9.07;;;4.50;99.90;;;;;;5100414;27;20416;-67
2022/01/20 09:52:31;;;;;;;14.38;8.80;;;4.50;99.90;;;;;;5097548;28;20024;-69
2022/01/20 09:54:56;;;;;;;16.50;8.60;;;4.60;99.90;;;;;;5094712;28;20034;-64
2022/01/20 09:57:22;;;;;;;13.87;8.40;;;4.60;99.90;;;;;;5093979;28;20038;-65
2022/01/20 09:59:50;;;;;;;16.13;8.50;;;4.60;99.90;;;;;;5096110;28;20472;-66
2022/01/20 10:02:18;;;;;;;18.27;8.68;;;4.50;99.90;;;;;;5092928;28;20417;-66
2022/01/20 10:04:44;;;;;;;18.20;8.68;;;4.50;99.90;;;;;;5095058;28;20498;-67
2022/01/20 10:07:13;;;;;;;18.33;9.30;;;4.50;99.90;;;;;;5094226;28;20028;-66
2022/01/20 10:09:48;;;;;;;15.38;8.75;;;4.50;99.90;;;;;;5094832;28;20044;-69
2022/01/20 10:12:16;;;;;;;15.32;8.52;;;4.50;99.90;;;;;;5094616;28;20463;-68
2022/01/20 10:15:00;;;;;;;16.70;9.63;;;4.60;99.90;;;;;;5093813;28;20043;-67
2022/01/20 10:17:31;;;;;;;18.00;9.38;;;4.60;99.90;;;;;;5097568;28;20047;-64
2022/01/20 10:20:07;;;;;;;16.85;9.05;;;4.70;99.90;;;;;;5099115;28;20403;-66
2022/01/20 10:22:36;;;;;;;17.15;8.98;;;4.70;99.90;;;;;;5097802;28;20036;-65
2022/01/20 10:25:08;;;;;;;20.23;9.18;;;4.60;99.90;;;;;;5096545;28;20123;-65
2022/01/20 10:27:49;;;;;;;18.45;9.10;;;4.50;99.90;;;;;;5093946;28;20026;-67
2022/01/20 10:30:16;;;;;;;49.55;25.60;;;4.50;99.90;;;;;;5077414;28;20036;-69
2022/01/20 10:32:43;;;;;;;18.02;9.00;;;4.30;99.90;;;;;;5073975;28;20020;-66
2022/01/20 10:35:10;;;;;;;18.38;8.93;;;4.10;99.90;;;;;;5071497;28;20554;-67
2022/01/20 10:37:41;;;;;;;20.95;9.35;;;4.10;99.90;;;;;;5074452;28;20063;-67
2022/01/20 10:40:12;;;;;;;19.20;9.77;;;4.30;99.90;;;;;;5075623;28;20027;-67
2022/01/20 10:42:43;;;;;;;15.63;8.82;;;4.50;99.90;;;;;;5075429;28;20020;-68
2022/01/20 10:45:27;;;;;;;21.80;10.15;;;4.50;99.90;;;;;;5074639;28;20054;-68
2022/01/20 10:47:58;;;;;;;19.67;8.65;;;4.40;99.90;;;;;;5070369;28;20047;-67
2022/01/20 10:50:27;;;;;;;20.48;9.27;;;4.40;99.90;;;;;;5070071;28;20020;-68
2022/01/20 10:52:54;;;;;;;34.20;20.77;;;4.40;99.90;;;;;;5072878;28;20574;-67
2022/01/20 10:55:24;;;;;;;16.58;9.82;;;4.40;99.90;;;;;;5070438;28;20017;-68
2022/01/20 10:57:52;;;;;;;19.98;9.77;;;4.60;99.90;;;;;;5073509;28;20035;-68
2022/01/20 11:00:21;;;;;;;17.13;9.23;;;4.70;99.90;;;;;;5060639;28;20469;-70
2022/01/20 11:02:53;;;;;;;19.40;10.02;;;4.80;99.90;;;;;;5061668;28;20024;-67
2022/01/20 11:05:20;;;;;;;17.08;8.63;;;4.90;99.90;;;;;;5061628;28;20655;-68
2022/01/20 11:07:47;;;;;;;21.17;9.18;;;4.80;99.90;;;;;;5056869;28;20724;-68
2022/01/20 11:10:13;;;;;;;19.35;9.75;;;4.70;99.90;;;;;;5050091;28;20039;-68
2022/01/20 11:12:41;;;;;;;19.35;9.88;;;4.60;99.90;;;;;;5057251;28;20052;-68
2022/01/20 11:15:19;;;;;;;18.80;9.80;;;4.50;99.90;;;;;;5056538;28;20032;-69
2022/01/20 11:17:52;;;;;;;20.95;9.70;;;4.60;99.90;;;;;;5055721;28;20021;-69
2022/01/20 11:20:29;;;;;;;15.85;9.63;;;4.70;99.90;;;;;;5058540;28;20075;-70
2022/01/20 11:23:04;;;;;;;22.52;9.70;;;4.90;99.90;;;;;;5055412;28;20074;-69
2022/01/20 11:25:35;;;;;;;20.23;10.65;;;5.00;99.90;;;;;;5061951;28;20086;-67
2022/01/20 11:28:09;;;;;;;19.70;9.77;;;5.10;99.90;;;;;;5062337;28;21342;-67
2022/01/20 11:30:39;;;;;;;20.08;10.27;;;5.00;99.90;;;;;;5054892;28;20031;-71
2022/01/20 11:33:41;;;;;;;19.85;9.45;;;5.00;99.90;;;;;;5066074;28;20036;-67
2022/01/20 11:36:29;;;;;;;18.50;9.45;;;5.10;99.90;;;;;;5065728;28;20021;-69
2022/01/20 11:39:05;;;;;;;22.80;9.25;;;5.10;99.90;;;;;;5065022;28;20091;-70
2022/01/20 11:41:43;;;;;;;17.83;9.75;;;5.10;99.90;;;;;;5060703;28;20089;-72
2022/01/20 11:44:20;;;;;;;18.85;8.93;;;5.00;99.90;;;;;;5061899;28;20499;-69
2022/01/20 11:46:49;;;;;;;19.00;9.18;;;4.90;99.90;;;;;;5061655;28;20089;-68
2022/01/20 11:49:19;;;;;;;18.25;9.30;;;4.60;99.90;;;;;;5065698;28;20041;-66
2022/01/20 11:51:56;;;;;;;16.83;8.93;;;4.40;99.90;;;;;;5063393;28;20066;-66
2022/01/20 11:54:36;;;;;;;20.63;10.50;;;4.00;99.90;;;;;;5063551;28;20029;-69
2022/01/20 11:57:13;;;;;;;18.27;9.55;;;3.70;99.90;;;;;;5061882;28;20032;-69
2022/01/20 11:59:54;;;;;;;19.77;9.35;;;3.70;99.90;;;;;;5063356;28;20510;-69
2022/01/20 12:02:28;;;;;;;19.17;9.32;;;3.60;99.90;;;;;;5062478;28;20024;-69
2022/01/20 12:04:54;;;;;;;17.30;9.27;;;3.60;99.90;;;;;;5060055;28;20082;-69
2022/01/20 12:07:33;;;;;;;19.30;9.75;;;3.60;99.90;;;;;;5064051;28;20083;-69
2022/01/20 12:10:09;;;;;;;21.02;10.18;;;3.60;99.90;;;;;;5058173;28;20137;-68
2022/01/20 12:12:37;;;;;;;19.10;9.10;;;3.70;99.90;;;;;;5063158;28;20041;-68
2022/01/20 12:15:20;;;;;;;16.80;8.82;;;3.60;99.90;;;;;;5065406;28;20480;-69
2022/01/20 12:17:51;;;;;;;18.15;8.50;;;3.60;99.90;;;;;;5063408;28;20024;-69
2022/01/20 12:20:17;;;;;;;16.10;8.70;;;3.60;99.90;;;;;;5065558;28;20032;-68
2022/01/20 12:22:45;;;;;;;16.48;9.18;;;3.60;99.90;;;;;;5063011;28;20063;-69
2022/01/20 12:25:26;;;;;;;15.40;7.85;;;3.60;99.90;;;;;;5062925;28;20041;-69
2022/01/20 12:28:19;;;;;;;18.58;9.05;;;3.70;99.90;;;;;;5054879;28;20090;-68
2022/01/20 12:30:50;;;;;;;16.67;8.82;;;3.60;99.90;;;;;;5062428;28;20074;-68
2022/01/20 12:33:18;;;;;;;17.63;8.20;;;3.70;99.90;;;;;;5062182;28;20413;-69
2022/01/20 12:35:50;;;;;;;18.88;8.88;;;3.70;99.90;;;;;;5059127;28;20055;-67
2022/01/20 12:38:36;;;;;;;17.02;9.45;;;3.80;99.90;;;;;;5061879;28;20039;-67
2022/01/20 12:41:13;;;;;;;17.08;9.05;;;3.40;99.90;;;;;;5060098;28;20024;-68
2022/01/20 12:43:49;;;;;;;19.40;8.68;;;3.90;99.90;;;;;;5056671;28;20052;-66
2022/01/20 12:46:20;;;;;;;21.63;9.18;;;3.90;99.90;;;;;;5059507;28;20079;-67
2022/01/20 12:49:08;;;;;;;18.35;8.75;;;3.90;99.90;;;;;;5059583;28;20045;-66
2022/01/20 12:51:38;;;;;;;16.98;9.52;;;3.90;99.90;;;;;;5061726;28;20115;-66
2022/01/20 12:54:06;;;;;;;18.55;8.18;;;3.80;99.90;;;;;;5059844;28;20052;-67
2022/01/20 12:56:35;;;;;;;17.88;9.15;;;3.70;99.90;;;;;;5056660;28;20029;-70
2022/01/20 12:59:04;;;;;;;18.42;9.00;;;3.60;99.90;;;;;;5058497;28;20033;-70
2022/01/20 13:01:44;;;;;;;20.17;8.85;;;3.60;99.90;;;;;;5052770;28;20029;-69
2022/01/20 13:04:13;;;;;;;19.65;9.60;;;3.50;99.90;;;;;;5052070;28;20035;-64
2022/01/20 13:06:50;;;;;;;17.45;8.90;;;3.40;99.90;;;;;;5061195;28;20336;-67
2022/01/20 13:09:18;;;;;;;16.10;8.25;;;3.30;99.90;;;;;;5060962;28;20479;-69
2022/01/20 13:11:57;;;;;;;19.70;8.80;;;3.30;99.90;;;;;;5062449;28;20396;-70
2022/01/20 13:14:48;;;;;;;15.07;7.85;;;3.20;99.90;;;;;;5058887;28;20093;-68
2022/01/20 13:17:28;;;;;;;16.02;9.15;;;3.20;99.90;;;;;;5058160;28;20025;-67
2022/01/20 13:19:56;;;;;;;15.57;8.63;;;3.20;99.90;;;;;;5058085;28;20064;-66
2022/01/20 13:22:27;;;;;;;15.23;8.70;;;3.20;99.90;;;;;;5064389;28;20135;-67
2022/01/20 13:24:54;;;;;;;15.73;8.70;;;3.20;99.90;;;;;;5064561;28;20140;-65
2022/01/20 13:27:20;;;;;;;18.67;8.50;;;3.20;99.90;;;;;;5063317;28;20032;-66
2022/01/20 13:29:49;;;;;;;;;;;3.20;99.90;;;;;;5063153;28;20468;-65
2022/01/20 13:32:15;;;;;;;16.83;9.10;;;3.20;99.90;;;;;;5060661;28;19955;-66
2022/01/20 13:34:55;;;;;;;14.57;8.57;;;4.10;99.90;;;;;;5057371;28;20784;-67
2022/01/20 13:37:21;;;;;;;18.33;8.43;;;3.20;99.90;;;;;;5055040;28;20029;-66
2022/01/20 13:39:50;;;;;;;20.13;8.90;;;3.10;99.90;;;;;;5063977;28;20060;-67
2022/01/20 13:45:03;;;;;;;17.95;9.25;;;3.10;99.90;;;;;;5061398;28;20559;-68
2022/01/20 13:45:14;;;;;;;18.60;10.23;;;3.10;99.90;;;;;;5067138;28;20162;-67
2022/01/20 13:47:54;;;;;;;20.20;9.10;;;3.10;99.90;;;;;;5057110;28;20043;-66
2022/01/20 13:50:29;;;;;;;21.27;9.52;;;3.00;99.90;;;;;;5057868;28;20024;-67
2022/01/20 13:52:56;;;;;;;16.98;9.07;;;2.90;99.90;;;;;;5062157;28;20043;-68
2022/01/20 13:55:24;;;;;;;16.80;8.10;;;2.90;99.90;;;;;;5055838;28;20021;-66
2022/01/20 13:57:51;;;;;;;19.10;9.57;;;2.90;99.90;;;;;;5060005;28;20032;-68
2022/01/20 14:00:20;;;;;;;18.35;8.88;;;2.90;99.90;;;;;;5058303;28;20028;-67
2022/01/20 14:02:47;;;;;;;16.95;8.43;;;2.90;99.90;;;;;;5054157;28;20029;-66
2022/01/20 14:05:15;;;;;;;21.00;9.43;;;2.90;99.90;;;;;;5062671;28;20108;-67
2022/01/20 14:07:40;;;;;;;18.30;9.38;;;2.70;99.90;;;;;;5060318;28;20070;-66
2022/01/20 14:10:06;;;;;;;20.20;10.70;;;2.80;99.90;;;;;;5053702;28;20702;-66
2022/01/20 14:12:32;;;;;;;20.97;9.97;;;2.80;99.90;;;;;;5055544;28;20104;-67
2022/01/20 14:14:58;;;;;;;20.23;9.40;;;2.80;99.90;;;;;;5058969;28;20033;-67
2022/01/20 14:17:24;;;;;;;19.05;9.48;;;2.80;99.90;;;;;;5059291;28;20067;-67
2022/01/20 14:19:56;;;;;;;17.92;9.32;;;2.80;99.90;;;;;;5060344;28;20435;-67
2022/01/20 14:22:23;;;;;;;20.33;9.20;;;2.80;99.90;;;;;;5059155;28;20024;-67
2022/01/20 14:24:49;;;;;;;18.42;9.80;;;2.70;99.90;;;;;;5058789;28;20436;-65
2022/01/20 14:27:16;;;;;;;15.57;9.73;;;2.70;99.90;;;;;;5057459;28;20028;-64
2022/01/20 14:29:45;;;;;;;20.27;10.00;;;2.70;99.90;;;;;;5062061;28;20044;-66
2022/01/20 14:32:11;;;;;;;23.70;11.35;;;2.70;99.90;;;;;;5063153;28;20028;-66
2022/01/20 14:34:41;;;;;;;20.60;11.27;;;2.70;99.90;;;;;;5058568;28;20040;-67
2022/01/20 14:37:08;;;;;;;54.08;26.48;;;2.70;99.90;;;;;;5057302;28;20032;-67
2022/01/20 14:39:34;;;;;;;19.50;11.18;;;2.70;99.90;;;;;;5067464;28;20368;-66
2022/01/20 14:42:07;;;;;;;21.10;11.43;;;2.70;99.90;;;;;;5062350;28;20031;-68
2022/01/20 14:44:35;;;;;;;20.40;10.18;;;2.70;99.90;;;;;;5062961;28;20037;-67
2022/01/20 14:47:05;;;;;;;26.50;10.25;;;2.70;99.90;;;;;;5054193;28;20029;-68
2022/01/20 14:49:31;;;;;;;22.98;10.45;;;2.80;99.90;;;;;;5050173;28;20424;-68
2022/01/20 14:52:00;;;;;;;24.27;10.10;;;2.70;99.90;;;;;;5053568;28;20029;-67
2022/01/20 14:54:26;;;;;;;20.80;10.55;;;2.70;99.90;;;;;;5056933;28;20847;-67